createdAt,value
2023-02-03T00:01:13.713Z,4.70
2023-02-03T00:03:41.361Z,6.03
2023-02-03T00:06:09.433Z,7.90
2023-02-03T00:08:39.688Z,3.50
2023-02-03T00:11:07.846Z,1.80
2023-02-03T00:13:35.613Z,3.37
2023-02-03T00:16:03.327Z,4.93
2023-02-03T00:18:30.948Z,2.37
2023-02-03T00:20:58.564Z,1.80
2023-02-03T00:23:26.232Z,5.53
2023-02-03T00:25:55.178Z,2.73
2023-02-03T00:28:22.777Z,1.90
2023-02-03T00:30:53.963Z,3.37
2023-02-03T00:33:21.498Z,3.87
2023-02-03T00:35:49.681Z,2.80
2023-02-03T00:38:17.459Z,6.10
2023-02-03T00:40:53.465Z,5.33
2023-02-03T00:43:22.783Z,3.77
2023-02-03T00:45:50.395Z,1.90
2023-02-03T00:48:17.953Z,2.50
2023-02-03T00:50:47.451Z,2.60
2023-02-03T00:53:15.280Z,8.37
2023-02-03T00:55:44.476Z,2.33
2023-02-03T00:58:12.328Z,3.50
2023-02-03T01:00:41.306Z,4.87
2023-02-03T01:03:09.093Z,3.83
2023-02-03T01:05:36.913Z,3.47
2023-02-03T01:08:05.038Z,3.13
2023-02-03T01:10:32.740Z,3.90
2023-02-03T01:13:00.373Z,1.70
2023-02-03T01:15:28.087Z,6.30
2023-02-03T01:17:57.104Z,8.60
2023-02-03T01:20:25.029Z,8.37
2023-02-03T01:22:53.076Z,3.93
2023-02-03T01:25:20.716Z,5.10
2023-02-03T01:27:48.398Z,2.77
2023-02-03T01:30:18.761Z,3.07
2023-02-03T01:32:46.464Z,2.90
2023-02-03T01:35:15.499Z,1.57
2023-02-03T01:37:43.314Z,3.53
2023-02-03T01:40:12.078Z,3.80
2023-02-03T01:42:39.665Z,2.17
2023-02-03T01:45:08.081Z,3.17
2023-02-03T01:47:41.023Z,2.20
2023-02-03T01:50:17.019Z,1.20
2023-02-03T01:52:47.988Z,1.53
2023-02-03T01:55:21.149Z,1.47
2023-02-03T01:57:52.751Z,1.33
2023-02-03T02:00:20.941Z,2.80
2023-02-03T02:02:49.801Z,3.33
2023-02-03T02:05:25.796Z,2.13
2023-02-03T02:07:53.463Z,3.53
2023-02-03T02:10:21.160Z,1.30
2023-02-03T02:12:49.447Z,1.33
2023-02-03T02:15:17.964Z,6.33
2023-02-03T02:18:00.828Z,1.40
2023-02-03T02:20:57.274Z,2.93
2023-02-03T02:24:10.300Z,1.50
2023-02-03T02:26:51.941Z,3.53
2023-02-03T02:29:36.608Z,1.20
2023-02-03T02:32:19.159Z,3.43
2023-02-03T02:34:55.569Z,1.93
2023-02-03T02:37:30.532Z,1.77
2023-02-03T02:40:06.465Z,3.17
2023-02-03T02:42:38.556Z,1.80
2023-02-03T02:45:11.756Z,1.50
2023-02-03T02:47:40.766Z,1.10
2023-02-03T02:50:15.496Z,3.23
2023-02-03T02:52:47.486Z,3.07
2023-02-03T02:55:24.435Z,2.43
2023-02-03T02:57:55.467Z,1.23
2023-02-03T03:00:24.276Z,1.10
2023-02-03T03:02:53.357Z,1.00
2023-02-03T03:05:21.139Z,1.30
2023-02-03T03:07:53.294Z,1.83
2023-02-03T03:10:27.965Z,2.77
2023-02-03T03:13:04.912Z,1.40
2023-02-03T03:15:34.739Z,2.33
2023-02-03T03:18:09.408Z,2.93
2023-02-03T03:20:40.360Z,1.80
2023-02-03T03:23:11.096Z,0.90
2023-02-03T03:25:42.645Z,1.30
2023-02-03T03:28:16.952Z,1.23
2023-02-03T03:30:44.974Z,1.10
2023-02-03T03:33:13.972Z,1.80
2023-02-03T03:35:48.085Z,2.23
2023-02-03T03:38:24.357Z,1.63
2023-02-03T03:40:57.478Z,1.20
2023-02-03T03:43:31.571Z,1.13
2023-02-03T03:46:03.423Z,1.60
2023-02-03T03:48:37.793Z,1.10
2023-02-03T03:51:09.949Z,1.47
2023-02-03T03:53:41.535Z,1.30
2023-02-03T03:56:15.046Z,1.23
2023-02-03T03:58:46.377Z,1.10
2023-02-03T04:01:16.592Z,5.23
2023-02-03T04:03:49.530Z,1.60
2023-02-03T04:06:17.564Z,0.90
2023-02-03T04:08:45.197Z,1.20
2023-02-03T04:11:32.814Z,2.43
2023-02-03T04:14:00.462Z,0.93
2023-02-03T04:16:28.419Z,2.40
2023-02-03T04:18:57.527Z,1.47
2023-02-03T04:21:25.138Z,1.97
2023-02-03T04:23:52.878Z,1.20
2023-02-03T04:26:20.516Z,1.27
2023-02-03T04:28:48.128Z,1.03
2023-02-03T04:31:15.874Z,0.90
2023-02-03T04:33:43.741Z,1.00
2023-02-03T04:36:12.747Z,0.90
2023-02-03T04:38:40.387Z,0.80
2023-02-03T04:41:08.268Z,0.80
2023-02-03T04:43:35.883Z,1.20
2023-02-03T04:46:22.556Z,0.97
2023-02-03T04:48:50.141Z,1.53
2023-02-03T04:51:19.191Z,2.40
2023-02-03T04:53:46.844Z,0.97
2023-02-03T04:56:15.975Z,0.97
2023-02-03T04:58:43.652Z,1.23
2023-02-03T05:01:11.624Z,1.17
2023-02-03T05:03:39.316Z,1.10
2023-02-03T05:06:07.254Z,1.90
2023-02-03T05:08:36.204Z,1.80
2023-02-03T05:11:05.777Z,1.30
2023-02-03T05:13:33.999Z,1.17
2023-02-03T05:16:01.765Z,1.77
2023-02-03T05:18:29.418Z,2.10
2023-02-03T05:20:57.100Z,3.47
2023-02-03T05:23:24.798Z,11.80
2023-02-03T05:25:53.851Z,12.23
2023-02-03T05:28:21.483Z,24.80
2023-02-03T05:30:49.397Z,13.30
2023-02-03T05:33:17.930Z,30.03
2023-02-03T05:35:45.644Z,19.53
2023-02-03T05:38:13.283Z,3.37
2023-02-03T05:40:58.540Z,4.63
2023-02-03T05:43:28.295Z,1.43
2023-02-03T05:45:55.932Z,1.60
2023-02-03T05:48:23.624Z,1.70
2023-02-03T05:50:51.338Z,1.73
2023-02-03T05:53:18.957Z,1.30
2023-02-03T05:55:46.721Z,1.50
2023-02-03T05:58:14.482Z,1.20
2023-02-03T06:00:43.712Z,1.20
2023-02-03T06:03:11.387Z,1.37
2023-02-03T06:05:41.171Z,1.73
2023-02-03T06:08:09.656Z,2.97
2023-02-03T06:10:37.331Z,1.30
2023-02-03T06:13:12.284Z,1.67
2023-02-03T06:15:40.385Z,1.30
2023-02-03T06:18:09.751Z,1.20
2023-02-03T06:20:37.397Z,1.53
2023-02-03T06:23:05.373Z,1.70
2023-02-03T06:25:33.149Z,1.43
2023-02-03T06:28:02.361Z,1.33
2023-02-03T06:30:32.173Z,1.33
2023-02-03T06:33:00.973Z,1.53
2023-02-03T06:35:30.157Z,1.43
2023-02-03T06:37:58.746Z,1.70
2023-02-03T06:40:29.782Z,1.67
2023-02-03T06:42:57.695Z,1.93
2023-02-03T06:45:25.953Z,2.60
2023-02-03T06:47:53.531Z,2.17
2023-02-03T06:50:21.263Z,1.40
2023-02-03T06:52:51.687Z,1.40
2023-02-03T06:55:19.798Z,1.20
2023-02-03T06:57:48.781Z,3.43
2023-02-03T07:00:19.295Z,3.97
2023-02-03T07:02:47.493Z,1.40
2023-02-03T07:05:15.332Z,1.50
2023-02-03T07:07:43.270Z,2.03
2023-02-03T07:10:12.642Z,5.23
2023-02-03T07:12:40.529Z,1.40
2023-02-03T07:15:09.153Z,1.17
2023-02-03T07:17:36.754Z,3.10
2023-02-03T07:20:05.344Z,5.40
2023-02-03T07:22:34.370Z,2.20
2023-02-03T07:25:02.050Z,1.53
2023-02-03T07:27:30.993Z,1.60
2023-02-03T07:29:58.975Z,3.70
2023-02-03T07:32:26.934Z,1.90
2023-02-03T07:34:54.527Z,1.50
2023-02-03T07:37:22.184Z,2.80
2023-02-03T07:39:49.721Z,2.43
2023-02-03T07:42:17.284Z,3.50
2023-02-03T07:44:46.241Z,1.50
2023-02-03T07:47:13.968Z,1.83
2023-02-03T07:49:42.939Z,4.30
2023-02-03T07:52:10.711Z,1.73
2023-02-03T07:54:39.836Z,1.37
2023-02-03T07:57:07.832Z,2.67
2023-02-03T07:59:35.426Z,1.43
2023-02-03T08:02:08.557Z,4.00
2023-02-03T08:04:36.208Z,2.70
2023-02-03T08:07:08.072Z,4.03
2023-02-03T08:09:35.793Z,2.03
2023-02-03T08:12:06.331Z,2.10
2023-02-03T08:14:34.184Z,1.20
2023-02-03T08:17:01.826Z,1.67
2023-02-03T08:19:33.981Z,1.43
2023-02-03T08:22:02.157Z,4.50
2023-02-03T08:24:29.851Z,1.93
2023-02-03T08:26:57.625Z,1.43
2023-02-03T08:29:25.468Z,1.13
2023-02-03T08:31:54.407Z,1.27
2023-02-03T08:34:22.240Z,2.30
2023-02-03T08:36:53.443Z,1.20
2023-02-03T08:39:21.168Z,2.50
2023-02-03T08:41:51.140Z,3.23
2023-02-03T08:44:19.819Z,1.67
2023-02-03T08:46:50.640Z,1.20
2023-02-03T08:49:18.534Z,1.47
2023-02-03T08:51:46.289Z,3.43
2023-02-03T08:54:16.247Z,2.07
2023-02-03T08:56:44.888Z,1.13
2023-02-03T08:59:13.092Z,1.50
2023-02-03T09:01:41.270Z,2.43
2023-02-03T09:04:10.097Z,1.30
2023-02-03T09:06:37.891Z,1.90
2023-02-03T09:09:06.240Z,1.57
2023-02-03T09:11:37.514Z,3.37
2023-02-03T09:14:07.443Z,2.60
2023-02-03T09:16:39.178Z,5.20
2023-02-03T09:19:06.938Z,1.00
2023-02-03T09:21:40.816Z,2.57
2023-02-03T09:24:10.251Z,8.70
2023-02-03T09:26:39.122Z,2.73
2023-02-03T09:29:07.260Z,1.73
2023-02-03T09:31:35.013Z,4.37
2023-02-03T09:34:03.862Z,3.23
2023-02-03T09:36:31.656Z,2.40
2023-02-03T09:38:59.529Z,4.73
2023-02-03T09:41:45.299Z,1.77
2023-02-03T09:44:18.651Z,2.30
2023-02-03T09:46:48.666Z,2.30
2023-02-03T09:49:21.559Z,1.00
2023-02-03T09:51:53.750Z,5.00
2023-02-03T09:54:24.491Z,6.40
2023-02-03T09:56:55.811Z,1.40
2023-02-03T09:59:23.995Z,1.97
2023-02-03T10:01:59.460Z,1.53
2023-02-03T10:04:37.833Z,1.17
2023-02-03T10:07:15.579Z,1.07
2023-02-03T10:09:52.289Z,4.10
2023-02-03T10:12:38.717Z,3.43
2023-02-03T10:15:25.097Z,1.77
2023-02-03T10:17:58.644Z,3.33
2023-02-03T10:20:36.854Z,2.37
2023-02-03T10:23:12.900Z,1.17
2023-02-03T10:25:44.348Z,1.83
2023-02-03T10:28:18.032Z,2.33
2023-02-03T10:30:51.140Z,1.00
2023-02-03T10:33:20.226Z,7.50
2023-02-03T10:35:52.056Z,1.10
2023-02-03T10:38:33.148Z,1.30
2023-02-03T10:41:02.249Z,1.77
2023-02-03T10:43:48.740Z,1.33
2023-02-03T10:46:18.103Z,1.80
2023-02-03T10:48:46.785Z,1.83
2023-02-03T10:51:20.819Z,1.40
2023-02-03T10:53:52.797Z,1.63
2023-02-03T10:56:24.004Z,1.53
2023-02-03T10:58:56.417Z,1.67
2023-02-03T11:01:27.624Z,3.90
2023-02-03T11:03:59.285Z,1.10
2023-02-03T11:06:27.814Z,0.93
2023-02-03T11:08:55.847Z,2.60
2023-02-03T11:11:25.894Z,1.50
2023-02-03T11:13:56.702Z,2.10
2023-02-03T11:16:25.784Z,1.33
2023-02-03T11:18:57.080Z,2.53
2023-02-03T11:21:28.478Z,5.53
2023-02-03T11:24:02.643Z,1.20
2023-02-03T11:26:34.809Z,2.13
2023-02-03T11:29:08.344Z,1.10
2023-02-03T11:31:38.011Z,2.57
2023-02-03T11:34:08.836Z,2.90
2023-02-03T11:36:36.751Z,3.93
2023-02-03T11:39:18.822Z,1.10
2023-02-03T11:41:48.137Z,0.87
2023-02-03T11:44:22.698Z,1.53
2023-02-03T11:46:54.601Z,3.90
2023-02-03T11:49:45.469Z,4.67
2023-02-03T11:52:28.301Z,1.20
2023-02-03T11:55:05.263Z,3.77
2023-02-03T11:57:46.116Z,2.90
2023-02-03T12:00:29.113Z,0.73
2023-02-03T12:03:19.508Z,1.20
2023-02-03T12:06:08.239Z,1.10
2023-02-03T12:08:53.059Z,1.77
2023-02-03T12:11:33.751Z,0.70
2023-02-03T12:14:18.016Z,2.97
2023-02-03T12:17:05.544Z,2.87
2023-02-03T12:19:46.748Z,1.60
2023-02-03T12:22:24.884Z,0.80
2023-02-03T12:25:04.008Z,1.20
2023-02-03T12:27:44.389Z,3.83
2023-02-03T12:30:18.437Z,1.10
2023-02-03T12:32:53.607Z,1.17
2023-02-03T12:35:26.225Z,2.43
2023-02-03T12:37:59.724Z,6.33
2023-02-03T12:40:35.866Z,1.90
2023-02-03T12:43:19.293Z,1.10
2023-02-03T12:45:54.417Z,7.03
2023-02-03T12:48:31.368Z,1.90
2023-02-03T12:51:02.963Z,3.20
2023-02-03T12:53:35.124Z,1.17
2023-02-03T12:56:06.238Z,1.87
2023-02-03T12:58:39.052Z,1.47
2023-02-03T13:01:12.971Z,2.87
2023-02-03T13:03:46.819Z,2.00
2023-02-03T13:06:23.560Z,1.23
2023-02-03T13:08:57.445Z,1.20
2023-02-03T13:11:33.577Z,2.30
2023-02-03T13:14:12.320Z,1.43
2023-02-03T13:16:45.701Z,0.90
2023-02-03T13:19:19.674Z,7.00
2023-02-03T13:21:49.729Z,1.13
2023-02-03T13:24:18.309Z,0.80
2023-02-03T13:27:00.906Z,1.53
2023-02-03T13:29:51.718Z,1.00
2023-02-03T13:32:36.601Z,2.03
2023-02-03T13:35:33.206Z,1.27
2023-02-03T13:38:27.060Z,2.90
2023-02-03T13:41:04.511Z,1.83
2023-02-03T13:43:39.000Z,1.43
2023-02-03T13:46:21.630Z,1.27
2023-02-03T13:48:50.112Z,2.23
2023-02-03T13:51:22.939Z,0.83
2023-02-03T13:53:59.103Z,1.80
2023-02-03T13:56:29.433Z,1.23
2023-02-03T13:59:07.736Z,3.93
2023-02-03T14:01:38.387Z,4.50
2023-02-03T14:04:08.946Z,0.90
2023-02-03T14:07:02.333Z,2.23
2023-02-03T14:09:46.852Z,1.10
2023-02-03T14:12:22.973Z,1.43
2023-02-03T14:15:05.275Z,2.67
2023-02-03T14:18:01.641Z,1.00
2023-02-03T14:20:44.735Z,2.90
2023-02-03T14:23:19.807Z,4.60
2023-02-03T14:25:52.262Z,1.00
2023-02-03T14:28:23.923Z,1.20
2023-02-03T14:31:17.168Z,1.43
2023-02-03T14:34:06.682Z,2.50
2023-02-03T14:36:41.934Z,4.10
2023-02-03T14:39:55.164Z,2.50
2023-02-03T14:42:51.974Z,2.83
2023-02-03T14:45:45.021Z,2.07
2023-02-03T14:48:31.498Z,1.37
2023-02-03T14:51:09.954Z,5.33
2023-02-03T14:53:54.510Z,1.30
2023-02-03T14:56:59.525Z,1.13
2023-02-03T14:59:37.925Z,2.97
2023-02-03T15:02:19.083Z,1.20
2023-02-03T15:04:47.392Z,1.00
2023-02-03T15:07:37.839Z,2.30
2023-02-03T15:10:14.955Z,1.07
2023-02-03T15:12:48.892Z,7.80
2023-02-03T15:15:24.305Z,1.73
2023-02-03T15:17:53.796Z,1.10
2023-02-03T15:20:38.667Z,1.13
2023-02-03T15:23:20.365Z,0.80
2023-02-03T15:25:54.851Z,1.10
2023-02-03T15:28:24.467Z,1.00
2023-02-03T15:30:57.924Z,1.20
2023-02-03T15:33:26.161Z,1.10
2023-02-03T15:35:59.927Z,1.20
2023-02-03T15:38:32.187Z,1.10
2023-02-03T15:40:59.972Z,0.93
2023-02-03T15:43:38.096Z,1.27
2023-02-03T15:46:12.679Z,1.23
2023-02-03T15:48:44.202Z,1.00
2023-02-03T15:51:19.198Z,1.27
2023-02-03T15:53:54.368Z,2.93
2023-02-03T15:56:27.439Z,0.90
2023-02-03T15:58:58.713Z,1.37
2023-02-03T16:01:28.068Z,1.30
2023-02-03T16:03:57.329Z,1.93
2023-02-03T16:06:35.589Z,1.60
2023-02-03T16:09:03.514Z,2.17
2023-02-03T16:11:34.653Z,2.20
2023-02-03T16:14:07.195Z,2.23
2023-02-03T16:16:39.768Z,2.70
2023-02-03T16:19:14.903Z,4.20
2023-02-03T16:21:56.585Z,1.20
2023-02-03T16:24:38.799Z,1.87
2023-02-03T16:27:32.758Z,1.53
2023-02-03T16:30:42.387Z,1.93
2023-02-03T16:33:35.590Z,1.50
2023-02-03T16:36:29.780Z,3.63
2023-02-03T16:39:20.253Z,2.10
2023-02-03T16:42:05.829Z,2.40
2023-02-03T16:44:51.132Z,3.90
2023-02-03T16:47:43.329Z,1.70
2023-02-03T16:50:38.560Z,3.53
2023-02-03T16:53:10.766Z,1.63
2023-02-03T16:55:40.022Z,6.73
2023-02-03T16:58:08.310Z,2.30
2023-02-03T17:00:35.989Z,1.70
2023-02-03T17:03:04.669Z,9.43
2023-02-03T17:05:32.724Z,1.53
2023-02-03T17:08:01.787Z,2.97
2023-02-03T17:10:29.501Z,3.43
2023-02-03T17:12:58.514Z,1.83
2023-02-03T17:15:26.169Z,5.57
2023-02-03T17:17:54.109Z,2.03
2023-02-03T17:20:23.320Z,1.60
2023-02-03T17:22:53.276Z,2.73
2023-02-03T17:25:21.821Z,3.80
2023-02-03T17:27:50.412Z,2.33
2023-02-03T17:30:19.665Z,2.00
2023-02-03T17:32:47.233Z,2.73
2023-02-03T17:35:14.889Z,15.70
2023-02-03T17:37:42.544Z,4.50
2023-02-03T17:54:07.743Z,8.10
2023-02-03T17:56:36.445Z,5.83
2023-02-03T17:59:20.509Z,3.53
2023-02-03T18:01:50.174Z,4.67
2023-02-03T18:04:22.130Z,4.53
2023-02-03T18:06:53.422Z,5.97
2023-02-03T18:09:22.348Z,4.30
2023-02-03T18:11:50.376Z,9.83
2023-02-03T18:14:21.372Z,3.30
2023-02-03T18:16:51.604Z,6.33
2023-02-03T18:19:19.440Z,3.20
2023-02-03T18:21:48.956Z,4.90
2023-02-03T18:24:19.439Z,12.50
2023-02-03T18:26:54.273Z,4.00
2023-02-03T18:29:28.598Z,9.50
2023-02-03T18:31:57.764Z,10.50
2023-02-03T18:34:25.699Z,8.77
2023-02-03T18:36:53.418Z,7.33
2023-02-03T18:39:21.861Z,3.47
2023-02-03T18:41:52.296Z,4.93
2023-02-03T18:44:20.374Z,2.30
2023-02-03T18:46:48.068Z,8.43
2023-02-03T18:49:17.201Z,10.20
2023-02-03T18:51:46.160Z,6.03
2023-02-03T18:54:14.051Z,8.60
2023-02-03T18:56:42.044Z,10.03
2023-02-03T18:59:11.698Z,8.83
2023-02-03T19:01:40.180Z,13.43
2023-02-03T19:04:08.273Z,9.13
2023-02-03T19:06:47.994Z,5.43
2023-02-03T19:09:17.908Z,9.70
2023-02-03T19:11:46.406Z,8.40
2023-02-03T19:14:16.684Z,8.27
2023-02-03T19:16:44.683Z,7.17
2023-02-03T19:19:13.884Z,7.40
2023-02-03T19:21:43.195Z,10.00
2023-02-03T19:24:13.534Z,8.10
2023-02-03T19:26:41.268Z,9.03
2023-02-03T19:29:09.015Z,3.90
2023-02-03T19:31:39.365Z,13.13
2023-02-03T19:34:08.221Z,9.20
2023-02-03T19:36:35.908Z,7.20
2023-02-03T19:39:05.654Z,15.93
2023-02-03T19:41:36.311Z,6.73
2023-02-03T19:44:05.722Z,7.20
2023-02-03T19:46:36.917Z,6.93
2023-02-03T19:49:06.575Z,8.30
2023-02-03T19:51:34.700Z,11.60
2023-02-03T19:54:02.767Z,7.20
2023-02-03T19:56:33.270Z,6.73
2023-02-03T19:59:00.898Z,12.33
2023-02-03T20:01:29.390Z,6.67
2023-02-03T20:03:58.414Z,15.73
2023-02-03T20:06:26.418Z,6.90
2023-02-03T20:08:56.150Z,7.83
2023-02-03T20:11:24.144Z,8.13
2023-02-03T20:13:53.211Z,9.30
2023-02-03T20:16:21.292Z,4.50
2023-02-03T20:18:49.381Z,7.10
2023-02-03T20:21:18.356Z,5.17
2023-02-03T20:23:45.934Z,4.10
2023-02-03T20:26:15.812Z,8.83
2023-02-03T20:28:44.673Z,7.80
2023-02-03T20:31:15.446Z,5.03
2023-02-03T20:33:43.281Z,12.23
2023-02-03T20:36:13.533Z,6.33
2023-02-03T20:38:42.258Z,10.87
2023-02-03T20:41:12.329Z,12.00
2023-02-03T20:43:40.373Z,11.80
2023-02-03T20:46:12.045Z,5.70
2023-02-03T20:48:41.564Z,7.63
2023-02-03T20:51:21.016Z,7.13
2023-02-03T20:53:50.306Z,16.27
2023-02-03T20:56:21.752Z,7.50
2023-02-03T20:58:49.566Z,11.23
2023-02-03T21:01:20.610Z,7.93
2023-02-03T21:04:07.615Z,13.03
2023-02-03T21:06:39.428Z,13.07
2023-02-03T21:09:15.850Z,9.67
2023-02-03T21:11:44.066Z,7.67
2023-02-03T21:14:25.067Z,6.97
2023-02-03T21:16:54.651Z,8.37
2023-02-03T21:19:30.035Z,13.20
2023-02-03T21:21:58.031Z,11.23
2023-02-03T21:24:29.508Z,14.80
2023-02-03T21:26:58.478Z,12.23
2023-02-03T21:29:32.480Z,9.10
2023-02-03T21:32:00.775Z,14.53
2023-02-03T21:34:32.152Z,9.50
2023-02-03T21:37:12.729Z,13.33
2023-02-03T21:39:42.600Z,6.70
2023-02-03T21:42:41.651Z,8.03
2023-02-03T21:45:28.321Z,9.80
2023-02-03T21:47:58.710Z,15.90
2023-02-03T21:50:31.626Z,10.37
2023-02-03T21:53:20.656Z,9.13
2023-02-03T21:55:48.309Z,18.93
2023-02-03T21:58:23.320Z,7.07
2023-02-03T22:00:52.189Z,14.70
2023-02-03T22:03:25.441Z,23.53
2023-02-03T22:06:08.007Z,7.50
2023-02-03T22:08:39.992Z,4.50
2023-02-03T22:11:08.109Z,9.23
2023-02-03T22:13:37.205Z,10.73
2023-02-03T22:16:06.653Z,9.70
2023-02-03T22:18:34.378Z,12.47
2023-02-03T22:21:06.063Z,9.23
2023-02-03T22:23:33.671Z,13.10
2023-02-03T22:26:01.476Z,7.43
2023-02-03T22:28:29.213Z,12.73
2023-02-03T22:30:56.980Z,14.33
2023-02-03T22:33:24.837Z,13.77
2023-02-03T22:35:52.546Z,13.70
2023-02-03T22:38:21.535Z,11.47
2023-02-03T22:40:49.378Z,8.03
2023-02-03T22:43:17.058Z,7.27
2023-02-03T22:45:44.849Z,10.20
2023-02-03T22:48:12.538Z,5.53
2023-02-03T22:50:40.531Z,14.47
2023-02-03T22:53:09.244Z,9.10
2023-02-03T22:55:39.618Z,5.87
2023-02-03T22:58:08.278Z,10.07
2023-02-03T23:00:36.249Z,3.60
2023-02-03T23:03:04.103Z,10.57
2023-02-03T23:05:32.558Z,11.20
2023-02-03T23:08:00.636Z,7.87
2023-02-03T23:10:32.141Z,7.60
2023-02-03T23:13:01.621Z,9.07
2023-02-03T23:15:30.835Z,7.47
2023-02-03T23:17:58.524Z,6.83
2023-02-03T23:20:26.343Z,7.20
2023-02-03T23:22:53.975Z,10.67
2023-02-03T23:25:21.688Z,5.60
2023-02-03T23:27:49.306Z,7.40
2023-02-03T23:30:18.543Z,7.40
2023-02-03T23:32:46.242Z,8.13
2023-02-03T23:35:32.115Z,6.37
2023-02-03T23:37:59.824Z,5.20
2023-02-03T23:40:27.539Z,15.53
2023-02-03T23:42:55.084Z,10.80
2023-02-03T23:45:24.030Z,8.57
2023-02-03T23:47:52.360Z,13.73
2023-02-03T23:50:20.221Z,14.67
2023-02-03T23:52:47.875Z,7.37
2023-02-03T23:55:17.558Z,6.27
2023-02-03T23:57:45.751Z,3.77
